Time;durP1;ratioP1;P1;durP2;ratioP2;P2;SDS_P1;SDS_P2;PMS_P1;PMS_P2;Temp;Humidity;BMP_temperature;BMP_pressure;BME280_temperature;BME280_humidity;BME280_pressure;Samples;Min_cycle;Max_cycle;Signal;HPM_P1;HPM_P2
2023/09/03 00:00:13;;;;;;;1999.90;999.90;;;;;;;16.51;100.00;95030.88;5008875;28;20215;-57
2023/09/03 00:02:38;;;;;;;1999.90;999.90;;;;;;;16.48;100.00;95027.03;5008709;28;20195;-58
2023/09/03 00:05:04;;;;;;;1999.90;999.90;;;;;;;16.44;100.00;95027.16;5008971;28;20195;-58
2023/09/03 00:07:29;;;;;;;1999.90;999.90;;;;;;;16.39;100.00;95030.47;5008633;28;20195;-57
2023/09/03 00:09:55;;;;;;;1999.90;999.90;;;;;;;16.38;100.00;95037.22;5008842;28;20201;-58
2023/09/03 00:12:20;;;;;;;1999.90;999.90;;;;;;;16.35;100.00;95035.34;5009165;28;20266;-58
2023/09/03 00:14:49;;;;;;;1999.90;999.90;;;;;;;16.32;100.00;95030.72;5009176;28;20195;-59
2023/09/03 00:17:14;;;;;;;1999.90;999.90;;;;;;;16.22;100.00;95036.63;5008571;28;20184;-58
2023/09/03 00:19:41;;;;;;;1999.90;999.90;;;;;;;16.19;100.00;95038.31;5009256;28;20202;-58
2023/09/03 00:22:06;;;;;;;1999.90;999.90;;;;;;;16.19;100.00;95037.53;5008801;28;20210;-57
2023/09/03 00:24:35;;;;;;;1999.90;999.90;;;;;;;16.15;100.00;95043.19;5008170;28;20211;-57
2023/09/03 00:27:00;;;;;;;1999.90;999.90;;;;;;;16.10;100.00;95040.22;5008772;28;20195;-57
2023/09/03 00:29:26;;;;;;;1999.90;999.90;;;;;;;16.11;100.00;95042.50;5008549;28;20256;-57
2023/09/03 00:31:52;;;;;;;1999.90;999.90;;;;;;;16.12;100.00;95033.03;5008419;28;20192;-58
2023/09/03 00:34:17;;;;;;;1999.90;999.90;;;;;;;16.08;100.00;95026.88;5008828;28;20230;-58
2023/09/03 00:36:44;;;;;;;1999.90;999.90;;;;;;;16.03;100.00;95030.19;5008256;28;20190;-57
2023/09/03 00:39:10;;;;;;;1999.90;999.90;;;;;;;15.97;100.00;95025.72;5008284;28;20225;-57
2023/09/03 00:41:36;;;;;;;1999.90;999.90;;;;;;;15.95;100.00;95028.91;5008621;28;20511;-56
2023/09/03 00:44:03;;;;;;;1999.90;999.90;;;;;;;15.98;100.00;95021.75;5007406;28;20266;-57
2023/09/03 00:46:29;;;;;;;1999.90;999.90;;;;;;;15.94;100.00;95021.88;5008782;28;20186;-58
2023/09/03 00:48:55;;;;;;;1999.90;999.90;;;;;;;15.93;100.00;95020.34;5008228;28;20195;-58
2023/09/03 00:51:20;;;;;;;1999.90;999.90;;;;;;;15.92;100.00;95027.06;5008301;28;20186;-58
2023/09/03 00:53:50;;;;;;;1999.90;999.90;;;;;;;15.88;100.00;95018.16;5008098;28;20199;-59
2023/09/03 00:56:15;;;;;;;1999.90;999.90;;;;;;;15.85;100.00;95021.78;5008232;28;20191;-58
2023/09/03 00:58:41;;;;;;;1999.90;999.90;;;;;;;15.81;100.00;95026.66;5007805;28;20199;-59
2023/09/03 01:01:07;;;;;;;1999.90;999.90;;;;;;;15.81;100.00;95023.88;5007829;28;20249;-58
2023/09/03 01:03:35;;;;;;;1999.90;999.90;;;;;;;15.81;100.00;95023.88;5007813;28;20190;-57
2023/09/03 01:06:01;;;;;;;1999.90;999.90;;;;;;;15.78;100.00;95013.75;5007754;28;20191;-58
2023/09/03 01:08:28;;;;;;;1999.90;999.90;;;;;;;15.74;100.00;95024.13;5008125;28;20198;-57
2023/09/03 01:11:11;;;;;;;1999.90;999.90;;;;;;;15.78;100.00;95026.78;5007866;28;20195;-61
2023/09/03 01:14:28;;;;;;;1999.90;999.90;;;;;;;15.75;100.00;95030.41;5008186;28;20292;-58
2023/09/03 01:17:22;;;;;;;1999.90;999.90;;;;;;;15.67;100.00;95023.63;4975717;28;20203;-56
2023/09/03 01:20:10;;;;;;;1999.90;999.90;;;;;;;15.66;100.00;95022.84;5007863;28;20191;-59
2023/09/03 01:23:00;;;;;;;1999.90;999.90;;;;;;;15.60;100.00;95030.13;5007936;28;20214;-57
2023/09/03 01:25:54;;;;;;;1999.90;999.90;;;;;;;15.54;100.00;95037.41;5007796;28;20222;-58
2023/09/03 01:28:22;;;;;;;1999.90;999.90;;;;;;;15.54;100.00;95026.41;5007571;28;20199;-57
2023/09/03 01:30:50;;;;;;;1999.90;999.90;;;;;;;15.51;100.00;95032.78;5007524;28;20203;-58
2023/09/03 01:33:17;;;;;;;1999.90;999.90;;;;;;;15.51;100.00;95029.25;5007678;28;20274;-58
2023/09/03 01:35:44;;;;;;;1999.90;999.90;;;;;;;15.47;100.00;95026.63;5007834;28;20191;-58
2023/09/03 01:38:09;;;;;;;1999.90;999.90;;;;;;;15.48;100.00;95022.66;5007154;28;20500;-57
2023/09/03 01:40:34;;;;;;;1999.90;999.90;;;;;;;15.48;100.00;95022.66;5007927;28;20191;-58
2023/09/03 01:43:00;;;;;;;1999.90;999.90;;;;;;;15.49;100.00;95021.47;5007912;28;20202;-58
2023/09/03 01:45:37;;;;;;;1999.90;999.90;;;;;;;15.46;100.00;95018.81;5007848;28;20195;-58
2023/09/03 01:48:20;;;;;;;1999.90;999.90;;;;;;;15.42;100.00;95029.94;5007508;28;20205;-58
2023/09/03 01:51:06;;;;;;;1999.90;999.90;;;;;;;15.37;100.00;95030.50;5007507;28;20417;-57
2023/09/03 01:54:09;;;;;;;1999.90;999.90;;;;;;;15.30;100.00;95027.19;5007884;28;20266;-57
2023/09/03 01:56:42;;;;;;;1999.90;999.90;;;;;;;15.27;100.00;95034.31;4981789;28;20211;-57
2023/09/03 01:59:19;;;;;;;1999.90;999.90;;;;;;;15.27;100.00;95039.06;5011696;28;20195;-58
2023/09/03 02:01:46;;;;;;;1999.90;999.90;;;;;;;15.31;100.00;95029.50;5010880;28;20238;-57
2023/09/03 02:04:12;;;;;;;1999.90;999.90;;;;;;;15.32;100.00;95033.78;5011403;28;20190;-57
2023/09/03 02:06:37;;;;;;;1999.90;999.90;;;;;;;15.30;100.00;95027.94;5010895;28;20225;-57
2023/09/03 02:09:03;;;;;;;1999.90;999.90;;;;;;;15.27;100.00;95030.81;5011056;28;20201;-58
2023/09/03 02:11:28;;;;;;;1999.90;999.90;;;;;;;15.29;100.00;95029.16;5010964;28;20195;-58
2023/09/03 02:13:54;;;;;;;1999.90;999.90;;;;;;;15.26;100.00;95021.78;5011157;28;20230;-58
2023/09/03 02:16:19;;;;;;;1999.90;999.90;;;;;;;15.25;100.00;95020.25;5010772;28;20195;-59
2023/09/03 02:18:44;;;;;;;1999.90;999.90;;;;;;;15.26;100.00;95016.28;5010824;28;20183;-58
2023/09/03 02:21:10;;;;;;;1999.90;999.90;;;;;;;15.25;100.00;95019.47;5011302;28;20218;-58
2023/09/03 02:23:35;;;;;;;1999.90;999.90;;;;;;;15.25;100.00;95020.25;5010704;28;20199;-58
2023/09/03 02:26:02;;;;;;;1999.90;999.90;;;;;;;15.24;100.00;95024.22;5010880;28;20306;-58
2023/09/03 02:28:28;;;;;;;1999.90;999.90;;;;;;;15.27;100.00;95020.56;5011126;28;20194;-57
2023/09/03 02:30:53;;;;;;;1999.90;999.90;;;;;;;15.30;100.00;95024.44;5010723;28;20516;-57
2023/09/03 02:33:19;;;;;;;1999.90;999.90;;;;;;;15.30;100.00;95016.94;5011043;28;20199;-58
2023/09/03 02:35:44;;;;;;;1999.90;999.90;;;;;;;15.28;100.00;95016.63;5010609;28;20194;-57
2023/09/03 02:38:09;;;;;;;1999.90;999.90;;;;;;;15.28;100.00;95024.09;5010753;28;20198;-59
2023/09/03 02:40:36;;;;;;;1999.90;999.90;;;;;;;15.30;100.00;95022.44;5010417;28;20238;-57
2023/09/03 02:43:04;;;;;;;1999.90;999.90;;;;;;;15.29;100.00;95026.41;5010387;28;20201;-57
2023/09/03 02:45:29;;;;;;;1999.90;999.90;;;;;;;15.32;100.00;95020.03;5010617;28;20226;-58
2023/09/03 02:47:55;;;;;;;1999.90;999.90;;;;;;;15.33;100.00;95015.28;5010212;28;20518;-59
2023/09/03 02:50:20;;;;;;;1999.90;999.90;;;;;;;15.32;100.00;95020.03;5010778;28;20207;-58
2023/09/03 02:52:45;;;;;;;1999.90;999.90;;;;;;;15.35;100.00;95019.19;5010618;28;20206;-54
2023/09/03 02:55:12;;;;;;;1999.90;999.90;;;;;;;15.34;100.00;95031.34;5010538;28;20234;-57
2023/09/03 02:57:38;;;;;;;1999.90;999.90;;;;;;;15.34;100.00;95034.09;5010499;28;20199;-59
2023/09/03 03:00:04;;;;;;;1999.90;999.90;;;;;;;15.35;100.00;95040.38;5009869;28;20198;-58
2023/09/03 03:02:29;;;;;;;1999.90;999.90;;;;;;;15.32;100.00;95042.03;5010105;28;20265;-57
2023/09/03 03:04:55;;;;;;;1999.90;999.90;;;;;;;15.32;100.00;95036.53;5010208;28;20202;-58
2023/09/03 03:07:29;;;;;;;1999.90;999.90;;;;;;;15.30;100.00;95044.44;5008932;28;20194;-58
2023/09/03 03:09:54;;;;;;;1999.90;999.90;;;;;;;15.25;100.00;95058.75;5010354;28;20194;-58
2023/09/03 03:12:20;;;;;;;1999.90;999.90;;;;;;;15.26;100.00;95074.06;5010116;28;20511;-57
2023/09/03 03:14:45;;;;;;;1999.90;999.90;;;;;;;15.28;100.00;95068.91;5009979;28;20195;-58
2023/09/03 03:17:11;;;;;;;1999.90;999.90;;;;;;;15.29;100.00;95077.91;5009590;28;20202;-59
2023/09/03 03:19:36;;;;;;;1999.90;999.90;;;;;;;15.30;100.00;95076.72;5010249;28;20175;-59
2023/09/03 03:22:01;;;;;;;1999.90;999.90;;;;;;;15.32;100.00;95090.78;5009340;28;20233;-58
2023/09/03 03:24:27;;;;;;;1999.90;999.90;;;;;;;15.31;100.00;95094.75;5009536;28;20209;-58
2023/09/03 03:26:52;;;;;;;1999.90;999.90;;;;;;;15.32;100.00;95113.56;5010190;28;20202;-58
2023/09/03 03:29:17;;;;;;;1999.90;999.90;;;;;;;15.32;100.00;95119.09;5009337;28;20248;-58
2023/09/03 03:31:43;;;;;;;1999.90;999.90;;;;;;;15.32;100.00;95123.81;5009338;28;20199;-59
2023/09/03 03:34:08;;;;;;;1999.90;999.90;;;;;;;15.34;100.00;95127.66;5009450;28;20195;-57
2023/09/03 03:36:33;;;;;;;1999.90;999.90;;;;;;;15.32;100.00;95141.09;5009415;28;20199;-58
2023/09/03 03:38:59;;;;;;;1999.90;999.90;;;;;;;15.34;100.00;95138.66;5009485;28;20198;-57
2023/09/03 03:41:24;;;;;;;1999.90;999.90;;;;;;;15.32;100.00;95145.81;5009471;28;20211;-57
2023/09/03 03:43:51;;;;;;;1999.90;999.90;;;;;;;15.30;100.00;95154.50;5009759;28;20195;-57
2023/09/03 03:46:20;;;;;;;1999.90;999.90;;;;;;;15.30;100.00;95157.25;5009480;28;20199;-57
2023/09/03 03:48:47;;;;;;;1999.90;999.90;;;;;;;15.28;100.00;95162.44;5009136;28;20221;-59
2023/09/03 03:51:13;;;;;;;1999.90;999.90;;;;;;;15.29;100.00;95168.69;5009576;28;20548;-58
2023/09/03 03:53:39;;;;;;;1999.90;999.90;;;;;;;15.27;100.00;95177.38;5009579;28;20229;-57
2023/09/03 03:56:06;;;;;;;1999.90;999.90;;;;;;;15.31;100.00;95172.59;5009080;28;20206;-57
2023/09/03 03:58:37;;;;;;;1999.90;999.90;;;;;;;15.35;100.00;95167.78;5009484;28;20206;-57
2023/09/03 04:01:12;;;;;;;1999.90;999.90;;;;;;;15.37;100.00;95159.06;5009156;28;20214;-57
2023/09/03 04:03:38;;;;;;;1999.90;999.90;;;;;;;15.40;100.00;95147.94;5008977;28;20198;-57
2023/09/03 04:06:03;;;;;;;1999.90;999.90;;;;;;;15.43;100.00;95116.00;5009329;28;20199;-58
2023/09/03 04:08:32;;;;;;;1999.90;999.90;;;;;;;15.43;100.00;95108.53;5008860;28;20258;-57
2023/09/03 04:11:03;;;;;;;1999.90;999.90;;;;;;;15.43;100.00;95081.03;5008834;28;20206;-57
2023/09/03 04:13:29;;;;;;;1999.90;999.90;;;;;;;15.42;100.00;95079.50;5008835;28;20230;-55
2023/09/03 04:15:55;;;;;;;1999.90;999.90;;;;;;;15.40;100.00;95065.38;5009057;28;20183;-57
2023/09/03 04:18:22;;;;;;;1999.90;999.90;;;;;;;15.40;100.00;95051.63;5008898;28;20195;-55
2023/09/03 04:20:51;;;;;;;1999.90;999.90;;;;;;;15.39;100.00;95049.31;5008583;28;20211;-56
2023/09/03 04:23:16;;;;;;;1999.90;999.90;;;;;;;15.34;100.00;95044.34;5008550;28;20203;-58
2023/09/03 04:25:42;;;;;;;1999.90;999.90;;;;;;;15.34;100.00;95038.84;5008847;28;20245;-56
2023/09/03 04:28:07;;;;;;;1999.90;999.90;;;;;;;15.35;100.00;95040.38;5008581;28;20226;-56
2023/09/03 04:30:36;;;;;;;1999.90;999.90;;;;;;;15.35;100.00;95041.19;5008600;28;20199;-57
2023/09/03 04:33:02;;;;;;;1999.90;999.90;;;;;;;15.37;100.00;95060.75;5008210;28;20203;-57
2023/09/03 04:35:30;;;;;;;1999.90;999.90;;;;;;;15.37;100.00;95066.25;5008624;28;20195;-58
2023/09/03 04:37:55;;;;;;;1999.90;999.90;;;;;;;15.37;100.00;95074.53;5008379;28;20202;-58
2023/09/03 04:40:21;;;;;;;1999.90;999.90;;;;;;;15.37;100.00;95060.75;5008204;28;20270;-58
2023/09/03 04:42:46;;;;;;;1999.90;999.90;;;;;;;15.38;100.00;95054.06;5008310;28;20195;-56
2023/09/03 04:45:12;;;;;;;1999.90;999.90;;;;;;;15.35;100.00;95057.69;5008739;28;20206;-58
2023/09/03 04:47:37;;;;;;;1999.90;999.90;;;;;;;15.35;100.00;95062.38;5008830;28;20183;-56
2023/09/03 04:50:03;;;;;;;1999.90;999.90;;;;;;;15.39;100.00;95068.56;5008477;28;20368;-58
2023/09/03 04:52:28;;;;;;;1999.90;999.90;;;;;;;15.45;100.00;95075.06;5008155;28;20198;-58
2023/09/03 04:54:54;;;;;;;1999.90;999.90;;;;;;;15.50;100.00;95064.28;5008018;28;20207;-56
2023/09/03 04:57:20;;;;;;;1999.90;999.90;;;;;;;15.57;100.00;95069.56;5008032;28;20194;-55
2023/09/03 04:59:45;;;;;;;1999.90;999.90;;;;;;;15.61;100.00;95070.22;5008028;28;20389;-59
2023/09/03 05:02:11;;;;;;;1999.90;999.90;;;;;;;15.69;100.00;95065.22;5007941;28;20278;-58
2023/09/03 05:04:36;;;;;;;1999.90;999.90;;;;;;;15.74;100.00;95070.19;5008081;28;20241;-57
2023/09/03 05:07:02;;;;;;;1999.90;999.90;;;;;;;15.75;100.00;95074.47;5007594;28;20195;-58
2023/09/03 05:09:28;;;;;;;1999.90;999.90;;;;;;;15.77;100.00;95078.31;5007771;28;20195;-56
2023/09/03 05:11:53;;;;;;;1999.90;999.90;;;;;;;15.82;100.00;95082.50;5008153;28;20203;-59
2023/09/03 05:14:19;;;;;;;1999.90;999.90;;;;;;;15.82;100.00;95099.81;5008319;28;20186;-57
2023/09/03 05:16:44;;;;;;;1999.90;999.90;;;;;;;15.87;100.00;95107.50;5007900;28;20218;-58
2023/09/03 05:19:14;;;;;;;1999.90;999.90;;;;;;;15.94;100.00;95109.22;5008282;28;20234;-58
2023/09/03 05:21:40;;;;;;;1999.90;999.90;;;;;;;15.99;100.00;95123.22;5007995;28;20202;-57
2023/09/03 05:24:06;;;;;;;1999.90;999.90;;;;;;;16.05;100.00;95120.66;5007491;28;20198;-56
2023/09/03 05:26:31;;;;;;;1999.90;999.90;;;;;;;16.08;100.00;95126.06;5007489;28;20199;-57
2023/09/03 05:28:57;;;;;;;1999.90;999.90;;;;;;;16.11;100.00;95147.19;5007219;28;20230;-59
2023/09/03 05:31:22;;;;;;;1999.90;999.90;;;;;;;16.21;100.00;95151.59;5007819;28;20199;-57
2023/09/03 05:33:48;;;;;;;1999.90;999.90;;;;;;;16.28;100.00;95167.88;5007477;28;20186;-58
2023/09/03 05:36:13;;;;;;;1999.90;999.90;;;;;;;16.34;100.00;95182.66;5007531;28;20195;-57
2023/09/03 05:38:42;;;;;;;1999.90;999.90;;;;;;;16.46;100.00;95194.13;5008010;28;20186;-58
2023/09/03 05:41:08;;;;;;;1999.90;999.90;;;;;;;16.52;100.00;95206.88;5007626;28;20236;-57
2023/09/03 05:43:33;;;;;;;1999.90;999.90;;;;;;;16.59;100.00;95241.72;5007427;28;20199;-56
2023/09/03 05:46:00;;;;;;;1999.90;999.90;;;;;;;16.67;100.00;95262.34;5007905;28;20198;-56
2023/09/03 05:48:25;;;;;;;1999.90;999.90;;;;;;;16.77;100.00;95305.31;5007786;28;20195;-57
2023/09/03 05:51:05;;;;;;;1999.90;999.90;;;;;;;16.83;100.00;95325.63;5007345;28;20219;-57
2023/09/03 05:53:31;;;;;;;1999.90;999.90;;;;;;;16.93;100.00;95349.31;5007581;28;20233;-57
2023/09/03 05:56:07;;;;;;;1999.90;999.90;;;;;;;17.07;100.00;95370.91;5007214;28;20199;-55
2023/09/03 05:58:33;;;;;;;1999.90;999.90;;;;;;;17.20;100.00;95396.50;5007633;28;20186;-55
2023/09/03 06:00:59;;;;;;;1999.90;999.90;;;;;;;17.32;100.00;95431.56;5007205;28;20338;-55
2023/09/03 06:03:24;;;;;;;1999.90;999.90;;;;;;;17.49;100.00;95457.84;5007241;28;20194;-56
2023/09/03 06:05:49;;;;;;;1999.90;999.90;;;;;;;17.72;100.00;95493.34;5007482;28;20262;-58
2023/09/03 06:08:15;;;;;;;1999.90;999.90;;;;;;;17.86;100.00;95532.34;5007483;28;20198;-56
2023/09/03 06:10:41;;;;;;;1999.90;999.90;;;;;;;18.01;100.00;95582.38;5007624;28;20209;-55
2023/09/03 06:13:07;;;;;;;1999.90;999.90;;;;;;;18.18;100.00;95630.75;5007379;28;20254;-55
2023/09/03 06:15:32;;;;;;;1999.90;999.90;;;;;;;18.37;100.00;95677.53;5007632;28;20190;-59
2023/09/03 06:17:59;;;;;;;1999.90;999.90;;;;;;;18.55;100.00;95732.25;5007401;28;20271;-56
2023/09/03 06:20:24;;;;;;;1999.90;999.90;;;;;;;18.88;100.00;95772.25;5007546;28;20215;-56
2023/09/03 06:22:50;;;;;;;1999.90;999.90;;;;;;;19.27;100.00;95810.47;5007033;28;20250;-54
2023/09/03 06:25:15;;;;;;;1999.90;999.90;;;;;;;19.70;100.00;95865.16;5007504;28;20374;-55
2023/09/03 06:27:41;;;;;;;1999.90;999.90;;;;;;;20.14;100.00;95916.63;5007334;28;20191;-55
2023/09/03 06:30:07;;;;;;;1999.90;999.90;;;;;;;20.44;100.00;95969.41;5007251;28;20187;-53
2023/09/03 06:32:32;;;;;;;1999.90;999.90;;;;;;;20.86;100.00;96006.66;5007199;28;20189;-55
2023/09/03 06:34:57;;;;;;;1999.90;999.90;;;;;;;21.09;100.00;96036.72;5007018;28;20202;-55
2023/09/03 06:37:23;;;;;;;1999.90;999.90;;;;;;;21.62;100.00;96052.09;5007040;28;20191;-57
2023/09/03 06:39:48;;;;;;;1999.90;999.90;;;;;;;21.97;100.00;96056.19;5006774;28;20191;-55
2023/09/03 06:42:13;;;;;;;1999.90;999.90;;;;;;;22.48;100.00;96085.06;5009838;28;20290;-57
2023/09/03 06:44:39;;;;;;;1999.90;999.90;;;;;;;23.25;100.00;96096.75;5010832;28;20190;-59
2023/09/03 06:47:04;;;;;;;1999.90;999.90;;;;;;;23.98;100.00;96103.63;5010569;28;20302;-59
2023/09/03 06:49:29;;;;;;;1999.90;999.90;;;;;;;24.34;100.00;96122.97;5010636;28;20191;-58
2023/09/03 06:51:55;;;;;;;1999.90;999.90;;;;;;;24.65;100.00;96135.34;5010246;28;20195;-59
2023/09/03 06:54:20;;;;;;;1999.90;999.90;;;;;;;24.90;100.00;96139.66;5010123;28;20182;-58
2023/09/03 06:56:45;;;;;;;1999.90;999.90;;;;;;;25.07;100.00;96149.94;5010289;28;20191;-56
2023/09/03 06:59:11;;;;;;;1999.90;999.90;;;;;;;25.41;100.00;96156.94;5010032;28;20198;-60
2023/09/03 07:01:36;;;;;;;1999.90;999.90;;;;;;;25.62;100.00;96152.97;5010198;28;20214;-59
2023/09/03 07:04:01;;;;;;;1999.90;999.90;;;;;;;26.27;100.00;96155.34;5010250;28;20187;-58
2023/09/03 07:06:27;;;;;;;1999.90;999.90;;;;;;;26.46;100.00;96162.22;5010035;28;20191;-59
2023/09/03 07:08:53;;;;;;;1999.90;999.90;;;;;;;26.49;100.00;96171.69;5009853;28;20187;-59
2023/09/03 07:11:19;;;;;;;1999.90;999.90;;;;;;;26.54;100.00;96174.56;5009876;28;20195;-58
2023/09/03 07:13:44;;;;;;;1999.90;999.90;;;;;;;26.56;100.00;96183.25;5010317;28;20230;-59
2023/09/03 07:16:09;;;;;;;1999.90;999.90;;;;;;;26.41;100.00;96185.34;5010185;28;20187;-59
2023/09/03 07:18:35;;;;;;;1999.90;999.90;;;;;;;26.31;100.00;96189.53;5010091;28;20202;-55
2023/09/03 07:21:05;;;;;;;1999.90;999.90;;;;;;;27.23;100.00;96188.50;5010083;28;20217;-56
2023/09/03 07:23:31;;;;;;;1999.90;999.90;;;;;;;27.64;100.00;96198.38;5009714;28;20209;-59
2023/09/03 07:26:04;;;;;;;1999.90;999.90;;;;;;;27.71;100.00;96206.34;5009467;28;20211;-59
2023/09/03 07:28:30;;;;;;;1999.90;999.90;;;;;;;28.26;100.00;96198.44;5009591;28;20191;-58
2023/09/03 07:30:56;;;;;;;1999.90;999.90;;;;;;;28.27;100.00;96211.22;5009697;28;20195;-60
2023/09/03 07:33:21;;;;;;;1999.90;999.90;;;;;;;28.47;100.00;96213.19;5009657;28;20266;-59
2023/09/03 07:35:46;;;;;;;1999.90;999.90;;;;;;;28.60;100.00;96215.56;5009574;28;20179;-59
2023/09/03 07:38:12;;;;;;;1999.90;999.90;;;;;;;28.33;100.00;96228.13;5009437;28;20198;-59
2023/09/03 07:40:38;;;;;;;1999.90;999.90;;;;;;;28.80;100.00;96219.00;5009376;28;20191;-59
2023/09/03 07:43:04;;;;;;;1999.90;999.90;;;;;;;29.53;100.00;96223.72;5009709;28;20199;-59
2023/09/03 07:45:29;;;;;;;1999.90;999.90;;;;;;;29.83;100.00;96210.75;5009446;28;20195;-59
2023/09/03 07:47:54;;;;;;;1999.90;999.90;;;;;;;30.14;100.00;96199.22;5009434;28;20218;-59
2023/09/03 07:50:20;;;;;;;1999.90;999.90;;;;;;;28.95;100.00;96216.03;5009289;28;20265;-59
2023/09/03 07:52:45;;;;;;;1999.90;999.90;;;;;;;29.27;100.00;96217.47;5008639;28;20199;-58
2023/09/03 07:55:10;;;;;;;1999.90;999.90;;;;;;;29.15;100.00;96213.06;5009181;28;20191;-58
2023/09/03 07:57:36;;;;;;;1999.90;999.90;;;;;;;29.58;100.00;96215.28;5008992;28;20221;-59
2023/09/03 08:00:01;;;;;;;1999.90;999.90;;;;;;;30.08;100.00;96221.03;5008990;28;20221;-58
2023/09/03 08:02:26;;;;;;;1999.90;999.90;;;;;;;30.18;100.00;96227.97;5008946;28;20219;-59
2023/09/03 08:04:52;;;;;;;1999.90;999.90;;;;;;;31.02;100.00;96238.66;5008910;28;20198;-58
2023/09/03 08:07:17;;;;;;;1999.90;999.90;;;;;;;32.04;100.00;96240.03;5009059;28;20195;-58
2023/09/03 08:09:42;;;;;;;1999.90;999.90;;;;;;;32.61;100.00;96239.09;5008739;28;20226;-59
2023/09/03 08:12:08;;;;;;;1999.90;999.90;;;;;;;32.30;97.24;96231.09;5008614;28;20206;-54
2023/09/03 08:14:33;;;;;;;1999.90;999.90;;;;;;;31.76;100.00;96232.97;5009240;28;20210;-58
2023/09/03 08:16:58;;;;;;;1999.90;999.90;;;;;;;31.98;100.00;96239.31;5008759;28;20191;-58
2023/09/03 08:19:24;;;;;;;1999.90;999.90;;;;;;;31.97;99.53;96234.94;5009046;28;20226;-56
2023/09/03 08:21:49;;;;;;;1999.90;999.90;;;;;;;32.11;96.23;96233.06;5008270;28;20211;-59
2023/09/03 08:24:14;;;;;;;1999.90;999.90;;;;;;;32.57;95.57;96222.41;5008431;28;20214;-57
2023/09/03 08:26:40;;;;;;;1999.90;999.90;;;;;;;32.67;91.34;96226.41;5008452;28;20202;-56
2023/09/03 08:29:05;;;;;;;1999.90;999.90;;;;;;;32.42;96.70;96227.69;5008335;28;20199;-57
2023/09/03 08:31:30;;;;;;;1999.90;999.90;;;;;;;32.37;94.68;96225.66;5008330;28;20195;-58
2023/09/03 08:33:56;;;;;;;1999.90;999.90;;;;;;;32.51;95.45;96233.00;5008441;28;20290;-60
2023/09/03 08:36:24;;;;;;;1999.90;999.90;;;;;;;32.72;89.02;96236.16;5008494;28;20187;-56
2023/09/03 08:38:50;;;;;;;1999.90;999.90;;;;;;;32.13;93.15;96236.09;5008203;28;20200;-58
2023/09/03 08:41:18;;;;;;;1999.90;999.90;;;;;;;31.66;96.33;96229.69;5008091;28;20234;-58
2023/09/03 08:43:47;;;;;;;1999.90;999.90;;;;;;;32.32;92.99;96228.53;5007939;28;20254;-57
2023/09/03 08:46:15;;;;;;;1999.90;999.90;;;;;;;32.82;90.07;96238.16;5008349;28;20249;-57
2023/09/03 08:48:42;;;;;;;1999.90;999.90;;;;;;;31.68;95.91;96224.28;5008677;28;20198;-57
2023/09/03 08:51:09;;;;;;;1999.90;999.90;;;;;;;32.10;92.96;96226.63;5008322;28;20205;-57
2023/09/03 08:53:36;;;;;;;1999.90;999.90;;;;;;;32.14;98.55;96229.94;5008389;28;20191;-57
2023/09/03 08:56:02;;;;;;;1999.90;999.90;;;;;;;32.30;90.92;96231.09;5007861;28;20199;-57
2023/09/03 08:58:27;;;;;;;1999.90;999.90;;;;;;;31.95;97.40;96233.91;5008133;28;20191;-58
2023/09/03 09:00:55;;;;;;;1999.90;999.90;;;;;;;31.89;96.83;96233.97;5007843;28;20239;-56
2023/09/03 09:03:24;;;;;;;1999.90;999.90;;;;;;;31.73;93.86;96234.81;5007630;28;20245;-57
2023/09/03 09:05:51;;;;;;;1999.90;999.90;;;;;;;31.93;89.87;96237.25;5007860;28;20249;-57
2023/09/03 09:08:16;;;;;;;1999.90;999.90;;;;;;;31.90;89.17;96238.31;5007907;28;20206;-57
2023/09/03 09:10:50;;;;;;;1999.90;999.90;;;;;;;31.71;91.42;96230.97;5007746;28;20171;-57
2023/09/03 09:13:20;;;;;;;1999.90;999.90;;;;;;;31.59;93.13;96235.91;5008157;28;20203;-58
2023/09/03 09:15:45;;;;;;;1999.90;999.90;;;;;;;31.38;92.20;96226.25;5007622;28;20225;-57
2023/09/03 09:18:11;;;;;;;1999.90;999.90;;;;;;;32.38;89.65;96215.91;5007958;28;20222;-57
2023/09/03 09:20:41;;;;;;;1999.90;999.90;;;;;;;31.90;91.28;96232.66;5007830;28;20229;-58
2023/09/03 09:23:10;;;;;;;1999.90;999.90;;;;;;;31.83;90.93;96224.72;5008036;28;20233;-57
2023/09/03 09:25:36;;;;;;;1999.90;999.90;;;;;;;32.22;90.50;96230.91;5007635;28;20202;-57
2023/09/03 09:28:14;;;;;;;1999.90;999.90;;;;;;;31.44;94.47;96237.50;5007608;28;20198;-57
2023/09/03 09:30:56;;;;;;;1999.90;999.90;;;;;;;31.16;97.89;96239.66;5007736;28;20213;-57
2023/09/03 09:33:22;;;;;;;1999.90;999.90;;;;;;;30.39;100.00;96241.31;5007451;28;20218;-56
2023/09/03 09:35:48;;;;;;;1999.90;999.90;;;;;;;31.57;98.37;96234.91;5007931;28;20191;-56
2023/09/03 09:38:14;;;;;;;1999.90;999.90;;;;;;;32.48;93.91;96248.19;5008153;28;20230;-55
2023/09/03 09:40:40;;;;;;;1999.90;999.90;;;;;;;32.06;93.06;96243.09;5007382;28;20207;-55
2023/09/03 09:43:09;;;;;;;1999.90;999.90;;;;;;;31.46;99.26;96241.34;5007434;28;20199;-57
2023/09/03 09:45:49;;;;;;;1999.90;999.90;;;;;;;29.87;100.00;96254.31;5007393;28;20191;-57
2023/09/03 09:48:15;;;;;;;1999.90;999.90;;;;;;;30.29;100.00;96256.16;5007473;28;20194;-56
2023/09/03 09:50:42;;;;;;;1999.90;999.90;;;;;;;30.62;100.00;96256.16;5007514;28;20202;-52
2023/09/03 09:53:24;;;;;;;1999.90;999.90;;;;;;;29.55;100.00;96271.84;5007726;28;20199;-53
2023/09/03 09:56:00;;;;;;;1999.90;999.90;;;;;;;29.17;100.00;96266.84;5008170;28;20199;-53
2023/09/03 09:58:38;;;;;;;1999.90;999.90;;;;;;;29.12;100.00;96256.28;5007600;28;20221;-51
2023/09/03 10:01:04;;;;;;;1999.90;999.90;;;;;;;28.95;100.00;96263.88;5007416;28;20238;-54
2023/09/03 10:03:46;;;;;;;1999.90;999.90;;;;;;;29.46;100.00;96263.63;5007072;28;20194;-54
2023/09/03 10:06:29;;;;;;;1999.90;999.90;;;;;;;29.52;100.00;96261.59;5007629;28;20353;-54
2023/09/03 10:08:55;;;;;;;1999.90;999.90;;;;;;;29.76;100.00;96250.69;5007049;28;20187;-53
2023/09/03 10:11:20;;;;;;;1999.90;999.90;;;;;;;30.43;100.00;96246.69;5007064;28;20246;-56
2023/09/03 10:13:48;;;;;;;1999.90;999.90;;;;;;;30.68;100.00;96254.88;5007594;28;20194;-53
2023/09/03 10:16:17;;;;;;;1999.90;999.90;;;;;;;30.72;100.00;96258.25;5009935;28;20199;-57
2023/09/03 10:18:47;;;;;;;1999.90;999.90;;;;;;;30.53;100.00;96256.44;5011073;28;20199;-55
2023/09/03 10:21:18;;;;;;;1999.90;999.90;;;;;;;30.15;100.00;96251.53;5010999;28;20218;-56
2023/09/03 10:23:48;;;;;;;1999.90;999.90;;;;;;;29.65;100.00;96261.94;5010961;28;20218;-54
2023/09/03 10:26:21;;;;;;;1999.90;999.90;;;;;;;29.89;100.00;96265.81;5010975;28;20191;-56
2023/09/03 10:28:50;;;;;;;1999.90;999.90;;;;;;;29.87;100.00;96259.16;5010888;28;20191;-56
2023/09/03 10:31:17;;;;;;;1999.90;999.90;;;;;;;29.94;100.00;96258.66;5010821;28;20253;-56
2023/09/03 10:33:42;;;;;;;1999.90;999.90;;;;;;;30.45;100.00;96252.59;5010462;28;20234;-56
2023/09/03 10:36:14;;;;;;;1999.90;999.90;;;;;;;30.56;100.00;96258.22;5010384;28;20199;-56
2023/09/03 10:38:40;;;;;;;1999.90;999.90;;;;;;;30.20;100.00;96259.25;5010797;28;20195;-55
2023/09/03 10:41:25;;;;;;;1999.90;999.90;;;;;;;29.84;100.00;96254.53;5011040;28;20278;-55
2023/09/03 10:43:52;;;;;;;1999.90;999.90;;;;;;;30.01;100.00;96246.91;5010823;28;20199;-55
2023/09/03 10:46:18;;;;;;;1999.90;999.90;;;;;;;30.04;100.00;96248.69;5010571;28;20254;-55
2023/09/03 10:48:54;;;;;;;1999.90;999.90;;;;;;;30.15;100.00;96246.69;5010727;28;20249;-55